Time;durP1;ratioP1;P1;durP2;ratioP2;P2;SDS_P1;SDS_P2;PMS_P1;PMS_P2;Temp;Humidity;BMP_temperature;BMP_pressure;BME280_temperature;BME280_humidity;BME280_pressure;Samples;Min_cycle;Max_cycle;Signal;HPM_P1;HPM_P2
2021/05/13 00:01:06;;;;;;;524.53;349.10;;;;;;;;;;5031386;28;20025;-84
2021/05/13 00:03:35;;;;;;;533.25;356.95;;;;;;;;;;5033050;28;20068;-84
2021/05/13 00:06:20;;;;;;;531.43;353.17;;;;;;;;;;5037812;28;20029;-84
2021/05/13 00:08:54;;;;;;;535.33;355.10;;;;;;;;;;5046813;28;20298;-84
2021/05/13 00:11:24;;;;;;;537.60;358.73;;;;;;;;;;5026114;28;20036;-84
2021/05/13 00:13:50;;;;;;;;;;;;;;;;;;5035724;28;20025;-86
2021/05/13 00:16:16;;;;;;;529.25;330.83;;;;;;;;;;5051082;28;19909;-85
2021/05/13 00:18:42;;;;;;;520.60;339.88;;;;;;;;;;5019100;28;20052;-87
2021/05/13 00:21:08;;;;;;;530.65;344.27;;;;;;;;;;5031674;28;20039;-86
2021/05/13 00:23:35;;;;;;;514.83;340.55;;;;;;;;;;5049133;28;20021;-84
2021/05/13 00:26:02;;;;;;;520.08;342.80;;;;;;;;;;5032417;28;20406;-85
2021/05/13 00:28:29;;;;;;;523.83;349.65;;;;;;;;;;5049107;28;20033;-85
2021/05/13 00:30:54;;;;;;;516.92;344.45;;;;;;;;;;5028075;28;20029;-84
2021/05/13 00:33:20;;;;;;;516.90;342.60;;;;;;;;;;5032338;28;20365;-85
2021/05/13 00:35:46;;;;;;;513.45;332.90;;;;;;;;;;5030879;28;20017;-84
2021/05/13 00:38:12;;;;;;;512.10;331.67;;;;;;;;;;5031041;28;20070;-85
2021/05/13 00:40:38;;;;;;;517.78;333.17;;;;;;;;;;5027219;28;20515;-85
2021/05/13 00:43:04;;;;;;;518.65;334.45;;;;;;;;;;5012475;28;20500;-84
2021/05/13 00:45:30;;;;;;;511.30;328.65;;;;;;;;;;5040537;28;20056;-85
2021/05/13 00:50:27;;;;;;;510.08;334.35;;;;;;;;;;5048203;28;20606;-85
2021/05/13 00:52:53;;;;;;;513.90;330.65;;;;;;;;;;5017388;28;20116;-85
2021/05/13 00:55:20;;;;;;;511.23;328.55;;;;;;;;;;5020090;28;20132;-84
2021/05/13 00:57:52;;;;;;;553.35;348.38;;;;;;;;;;5047669;28;20044;-85
2021/05/13 01:00:38;;;;;;;509.20;325.45;;;;;;;;;;5026841;28;20331;-86
2021/05/13 01:03:04;;;;;;;508.13;318.98;;;;;;;;;;5026478;28;20047;-84
2021/05/13 01:05:32;;;;;;;507.80;320.88;;;;;;;;;;5025761;28;20041;-86
2021/05/13 01:07:59;;;;;;;504.98;321.58;;;;;;;;;;5032232;28;20033;-85
2021/05/13 01:10:26;;;;;;;504.65;324.23;;;;;;;;;;5019667;28;20021;-85
2021/05/13 01:12:52;;;;;;;506.90;327.42;;;;;;;;;;5048629;28;20488;-85
2021/05/13 01:15:25;;;;;;;514.03;327.75;;;;;;;;;;5034846;28;20473;-83
2021/05/13 01:20:28;;;;;;;516.03;327.17;;;;;;;;;;5039768;28;20484;-86
2021/05/13 01:22:54;;;;;;;515.05;330.92;;;;;;;;;;5049407;28;20086;-86
2021/05/13 01:25:20;;;;;;;513.72;328.38;;;;;;;;;;5030200;28;20025;-85
2021/05/13 01:27:46;;;;;;;517.72;330.95;;;;;;;;;;5030478;28;20037;-83
2021/05/13 01:30:13;;;;;;;517.65;326.92;;;;;;;;;;5024338;28;20113;-83
2021/05/13 01:32:39;;;;;;;507.33;318.92;;;;;;;;;;5011740;28;20041;-84
2021/05/13 01:35:05;;;;;;;508.08;321.45;;;;;;;;;;5021794;28;20858;-86
2021/05/13 01:37:31;;;;;;;513.45;325.55;;;;;;;;;;5026187;28;20025;-83
2021/05/13 01:39:57;;;;;;;505.73;326.35;;;;;;;;;;5030127;28;20035;-85
2021/05/13 01:42:23;;;;;;;507.45;318.27;;;;;;;;;;5030463;28;20025;-85
2021/05/13 01:44:49;;;;;;;501.83;315.88;;;;;;;;;;5030736;28;20029;-85
2021/05/13 01:47:15;;;;;;;507.75;319.83;;;;;;;;;;5032368;28;20029;-83
2021/05/13 01:49:41;;;;;;;502.67;313.15;;;;;;;;;;5029312;28;20028;-84
2021/05/13 01:52:07;;;;;;;496.70;308.85;;;;;;;;;;5014892;28;20065;-84
2021/05/13 01:54:33;;;;;;;503.98;315.05;;;;;;;;;;5022593;28;20052;-85
2021/05/13 01:57:03;;;;;;;504.17;315.10;;;;;;;;;;5030478;28;20020;-85
2021/05/13 01:59:29;;;;;;;486.30;305.55;;;;;;;;;;5028473;28;20033;-82
2021/05/13 02:01:55;;;;;;;492.02;313.35;;;;;;;;;;5010443;28;20289;-84
2021/05/13 02:04:21;;;;;;;489.98;312.30;;;;;;;;;;5022717;28;20028;-84
2021/05/13 02:06:47;;;;;;;484.40;302.02;;;;;;;;;;5029895;28;20057;-84
2021/05/13 02:09:13;;;;;;;495.38;305.67;;;;;;;;;;5029159;28;20071;-83
2021/05/13 02:11:39;;;;;;;499.60;300.38;;;;;;;;;;5030195;28;20529;-84
2021/05/13 02:14:05;;;;;;;489.17;299.25;;;;;;;;;;5047867;28;20392;-84
2021/05/13 02:16:31;;;;;;;505.10;312.77;;;;;;;;;;5047926;28;20074;-84
2021/05/13 02:18:57;;;;;;;494.05;302.75;;;;;;;;;;5047075;28;20368;-86
2021/05/13 02:21:23;;;;;;;493.98;302.30;;;;;;;;;;5021295;28;20140;-84
2021/05/13 02:23:49;;;;;;;486.58;303.83;;;;;;;;;;5032756;28;20542;-85
2021/05/13 02:26:18;;;;;;;488.30;304.98;;;;;;;;;;5052583;28;20021;-83
2021/05/13 02:28:44;;;;;;;473.05;294.00;;;;;;;;;;5033743;28;20091;-84
2021/05/13 02:31:10;;;;;;;469.05;291.77;;;;;;;;;;5051043;28;20706;-84
2021/05/13 02:33:36;;;;;;;464.70;288.40;;;;;;;;;;5034655;28;20029;-84
2021/05/13 02:36:03;;;;;;;468.15;288.70;;;;;;;;;;5051831;28;20074;-83
2021/05/13 02:38:29;;;;;;;489.77;297.95;;;;;;;;;;5050628;28;20021;-84
2021/05/13 02:40:55;;;;;;;479.23;291.25;;;;;;;;;;5030670;28;20047;-83
2021/05/13 02:43:21;;;;;;;489.33;292.75;;;;;;;;;;5033822;28;20036;-85
2021/05/13 02:45:47;;;;;;;482.70;288.80;;;;;;;;;;5031245;28;20033;-85
2021/05/13 02:48:13;;;;;;;495.23;300.98;;;;;;;;;;5026372;28;20424;-84
2021/05/13 02:50:39;;;;;;;480.63;296.35;;;;;;;;;;5048301;28;20500;-83
2021/05/13 02:53:05;;;;;;;481.35;298.58;;;;;;;;;;5017636;28;20558;-85
2021/05/13 02:55:31;;;;;;;481.85;296.23;;;;;;;;;;5034592;28;20075;-84
2021/05/13 02:58:00;;;;;;;481.10;298.80;;;;;;;;;;5034136;28;20024;-85
2021/05/13 03:00:30;;;;;;;499.92;290.17;;;;;;;;;;5048616;28;20028;-83
2021/05/13 03:02:56;;;;;;;504.50;298.60;;;;;;;;;;5033773;28;20025;-83
2021/05/13 03:05:26;;;;;;;499.00;293.58;;;;;;;;;;5033119;28;20033;-84
2021/05/13 03:07:54;;;;;;;500.15;299.55;;;;;;;;;;5032632;28;20337;-83
2021/05/13 03:10:23;;;;;;;637.60;370.95;;;;;;;;;;5028372;28;20116;-83
2021/05/13 03:12:52;;;;;;;629.00;356.90;;;;;;;;;;5040443;28;20048;-83
2021/05/13 03:15:18;;;;;;;631.78;365.52;;;;;;;;;;5023373;28;20161;-84
2021/05/13 03:17:44;;;;;;;526.95;312.50;;;;;;;;;;5026331;28;20059;-83
2021/05/13 03:20:14;;;;;;;534.35;308.17;;;;;;;;;;5027351;28;20381;-84
2021/05/13 03:22:40;;;;;;;535.97;312.98;;;;;;;;;;5049734;28;20025;-83
2021/05/13 03:25:07;;;;;;;566.45;330.67;;;;;;;;;;5032994;28;20558;-83
2021/05/13 03:27:50;;;;;;;584.05;353.05;;;;;;;;;;5032787;28;20557;-84
2021/05/13 03:30:19;;;;;;;571.50;323.88;;;;;;;;;;5030623;28;20063;-83
2021/05/13 03:32:45;;;;;;;588.47;342.02;;;;;;;;;;5031599;28;20509;-84
2021/05/13 03:35:13;;;;;;;593.45;346.13;;;;;;;;;;5031175;28;20021;-83
2021/05/13 03:37:39;;;;;;;597.72;349.63;;;;;;;;;;5032989;28;20044;-83
2021/05/13 03:40:06;;;;;;;598.65;359.02;;;;;;;;;;5031926;28;20056;-83
2021/05/13 03:42:32;;;;;;;606.85;355.30;;;;;;;;;;5050393;28;20507;-82
2021/05/13 03:44:58;;;;;;;610.35;365.92;;;;;;;;;;5049848;28;20029;-81
2021/05/13 03:47:24;;;;;;;609.03;359.17;;;;;;;;;;5032682;28;20485;-82
2021/05/13 03:49:50;;;;;;;610.20;354.48;;;;;;;;;;5049531;28;20396;-83
2021/05/13 03:52:16;;;;;;;595.80;336.35;;;;;;;;;;5032014;28;20036;-83
2021/05/13 03:54:42;;;;;;;596.38;351.60;;;;;;;;;;5032594;28;20048;-83
2021/05/13 03:57:09;;;;;;;612.60;362.08;;;;;;;;;;5030854;28;20024;-82
2021/05/13 03:59:38;;;;;;;594.83;335.60;;;;;;;;;;5029323;28;20485;-81
2021/05/13 04:04:36;;;;;;;607.97;356.58;;;;;;;;;;5038061;28;20286;-84
2021/05/13 04:07:03;;;;;;;590.28;339.15;;;;;;;;;;5028499;28;20477;-83
2021/05/13 04:09:29;;;;;;;490.92;295.50;;;;;;;;;;5029241;28;20035;-80
2021/05/13 04:11:55;;;;;;;482.13;288.88;;;;;;;;;;5027756;28;20112;-82
2021/05/13 04:14:22;;;;;;;480.17;286.73;;;;;;;;;;5028393;28;20525;-83
2021/05/13 04:16:55;;;;;;;487.35;287.95;;;;;;;;;;5045874;28;20380;-83
2021/05/13 04:19:21;;;;;;;497.00;291.75;;;;;;;;;;5031774;28;20087;-82
2021/05/13 04:21:48;;;;;;;487.38;279.77;;;;;;;;;;5055608;28;20496;-83
2021/05/13 04:24:14;;;;;;;495.65;288.95;;;;;;;;;;5033086;28;20037;-83
2021/05/13 04:26:41;;;;;;;467.20;283.20;;;;;;;;;;5053644;28;20036;-83
2021/05/13 04:29:10;;;;;;;468.25;283.63;;;;;;;;;;5053677;28;20105;-83
2021/05/13 04:31:36;;;;;;;479.65;287.15;;;;;;;;;;5031663;28;20068;-83
2021/05/13 04:34:03;;;;;;;465.08;281.10;;;;;;;;;;5035805;28;20115;-83
2021/05/13 04:36:29;;;;;;;467.83;285.20;;;;;;;;;;5053413;28;20404;-83
2021/05/13 04:38:55;;;;;;;463.00;280.13;;;;;;;;;;5035446;28;20021;-82
2021/05/13 04:41:22;;;;;;;465.17;285.13;;;;;;;;;;5050997;28;20087;-83
2021/05/13 04:43:48;;;;;;;473.92;289.15;;;;;;;;;;5035939;28;20024;-84
2021/05/13 04:46:15;;;;;;;485.33;289.70;;;;;;;;;;5052864;28;20029;-84
2021/05/13 04:51:17;;;;;;;502.00;289.67;;;;;;;;;;5035530;28;20140;-82
2021/05/13 04:53:44;;;;;;;503.98;297.73;;;;;;;;;;5036965;28;20092;-82
2021/05/13 04:56:10;;;;;;;508.80;298.35;;;;;;;;;;5030756;28;20051;-80
2021/05/13 04:58:36;;;;;;;514.83;299.55;;;;;;;;;;5031674;28;20548;-83
2021/05/13 05:01:02;;;;;;;501.45;292.90;;;;;;;;;;5028528;28;20033;-84
2021/05/13 05:03:28;;;;;;;510.30;300.88;;;;;;;;;;5048616;28;20056;-84
2021/05/13 05:05:54;;;;;;;529.67;307.05;;;;;;;;;;5022241;28;20036;-84
2021/05/13 05:08:20;;;;;;;565.90;329.00;;;;;;;;;;5028718;28;20292;-84
2021/05/13 05:10:46;;;;;;;574.72;339.05;;;;;;;;;;5031250;28;20488;-84
2021/05/13 05:13:12;;;;;;;508.77;292.15;;;;;;;;;;5045952;28;20029;-82
2021/05/13 05:15:38;;;;;;;504.98;300.35;;;;;;;;;;5030287;28;20040;-83
2021/05/13 05:18:04;;;;;;;491.25;298.58;;;;;;;;;;5047376;28;20032;-85
2021/05/13 05:20:30;;;;;;;492.23;290.92;;;;;;;;;;5030666;28;20472;-85
2021/05/13 05:22:56;;;;;;;496.85;298.45;;;;;;;;;;5030852;28;20039;-83
2021/05/13 05:25:22;;;;;;;503.38;302.35;;;;;;;;;;5030858;28;20032;-83
2021/05/13 05:27:48;;;;;;;500.50;299.80;;;;;;;;;;5030725;28;20120;-84
2021/05/13 05:30:14;;;;;;;502.10;302.75;;;;;;;;;;5029292;28;20412;-85
2021/05/13 05:32:40;;;;;;;498.70;297.70;;;;;;;;;;5046269;28;20065;-81
2021/05/13 05:35:06;;;;;;;496.83;303.50;;;;;;;;;;5048997;28;20060;-83
2021/05/13 05:37:32;;;;;;;494.10;296.58;;;;;;;;;;5029712;28;20021;-82
2021/05/13 05:40:00;;;;;;;502.10;303.90;;;;;;;;;;5030303;28;20504;-82
2021/05/13 05:42:26;;;;;;;505.45;300.90;;;;;;;;;;5043847;28;20738;-82
2021/05/13 05:44:52;;;;;;;505.85;299.95;;;;;;;;;;5029691;28;20532;-82
2021/05/13 05:47:18;;;;;;;505.75;302.25;;;;;;;;;;5028626;28;20035;-83
2021/05/13 05:49:44;;;;;;;505.38;311.23;;;;;;;;;;5048428;28;20108;-84
2021/05/13 05:52:11;;;;;;;513.35;317.95;;;;;;;;;;5028453;28;20125;-85
2021/05/13 05:54:37;;;;;;;504.98;309.25;;;;;;;;;;5028356;28;20464;-86
2021/05/13 05:57:03;;;;;;;521.42;321.50;;;;;;;;;;5030950;28;20112;-83
2021/05/13 05:59:29;;;;;;;506.83;316.63;;;;;;;;;;5034740;28;20024;-82
2021/05/13 06:01:55;;;;;;;472.45;303.10;;;;;;;;;;5032724;28;20452;-81
2021/05/13 06:04:21;;;;;;;480.35;306.63;;;;;;;;;;5033429;28;20028;-84
2021/05/13 06:06:47;;;;;;;480.95;312.48;;;;;;;;;;5049722;28;20025;-81
2021/05/13 06:09:13;;;;;;;489.23;311.85;;;;;;;;;;5029206;28;20047;-81
2021/05/13 06:11:39;;;;;;;498.17;320.88;;;;;;;;;;5049900;28;21364;-82
2021/05/13 06:14:05;;;;;;;506.75;327.55;;;;;;;;;;5033189;28;20120;-83
2021/05/13 06:16:31;;;;;;;522.40;331.15;;;;;;;;;;5045504;28;20021;-82
2021/05/13 06:18:58;;;;;;;509.48;331.40;;;;;;;;;;5049062;28;20365;-85
2021/05/13 06:21:24;;;;;;;513.40;333.45;;;;;;;;;;5038413;28;20029;-82
2021/05/13 06:23:51;;;;;;;518.65;338.05;;;;;;;;;;5037967;28;20488;-84
2021/05/13 06:26:32;;;;;;;517.55;340.83;;;;;;;;;;5038298;28;20033;-81
2021/05/13 06:28:59;;;;;;;545.65;349.33;;;;;;;;;;5038286;28;20500;-85
2021/05/13 06:31:25;;;;;;;583.88;387.67;;;;;;;;;;5036299;28;20028;-81
2021/05/13 06:33:51;;;;;;;522.03;339.75;;;;;;;;;;5037801;28;20029;-92
2021/05/13 06:36:17;;;;;;;533.33;354.67;;;;;;;;;;5040940;28;20017;-81
2021/05/13 06:38:44;;;;;;;544.25;364.02;;;;;;;;;;5034327;28;20365;-85
2021/05/13 06:41:10;;;;;;;589.60;394.05;;;;;;;;;;5055152;28;20032;-83
2021/05/13 06:43:36;;;;;;;478.27;325.90;;;;;;;;;;5036053;28;20672;-81
2021/05/13 06:46:03;;;;;;;524.22;354.23;;;;;;;;;;5032881;28;20522;-81
2021/05/13 06:48:29;;;;;;;505.77;347.08;;;;;;;;;;5055863;28;20029;-80
2021/05/13 06:50:55;;;;;;;503.27;344.70;;;;;;;;;;5037623;28;20094;-82
2021/05/13 06:53:21;;;;;;;505.50;345.27;;;;;;;;;;5037707;28;20025;-80
2021/05/13 06:55:51;;;;;;;526.03;361.42;;;;;;;;;;5055345;28;20086;-77
2021/05/13 06:58:17;;;;;;;;;;;;;;;;;;5021620;28;20677;-77
2021/05/13 07:00:43;;;;;;;517.22;341.95;;;;;;;;;;5026073;28;19909;-80
2021/05/13 07:03:19;;;;;;;511.60;346.60;;;;;;;;;;5035897;28;20499;-79
2021/05/13 07:05:45;;;;;;;527.70;352.80;;;;;;;;;;5046449;28;20021;-80
2021/05/13 07:08:11;;;;;;;528.50;363.33;;;;;;;;;;5054860;28;20029;-79
2021/05/13 07:10:37;;;;;;;523.92;351.77;;;;;;;;;;5041421;28;20086;-80
2021/05/13 07:13:04;;;;;;;507.60;345.42;;;;;;;;;;5036420;28;20086;-79
2021/05/13 07:15:31;;;;;;;490.63;339.10;;;;;;;;;;5056642;28;20025;-83
2021/05/13 07:17:57;;;;;;;496.45;340.13;;;;;;;;;;5045037;28;20106;-82
2021/05/13 07:20:23;;;;;;;485.02;345.02;;;;;;;;;;5033223;28;20076;-83
2021/05/13 07:22:50;;;;;;;490.85;342.58;;;;;;;;;;5032152;28;20057;-82
2021/05/13 07:25:16;;;;;;;531.65;382.20;;;;;;;;;;5031924;28;20033;-83
2021/05/13 07:27:43;;;;;;;497.50;356.95;;;;;;;;;;5034263;28;20087;-84
2021/05/13 07:30:10;;;;;;;500.20;354.00;;;;;;;;;;5051860;28;20060;-82
2021/05/13 07:32:36;;;;;;;503.88;352.95;;;;;;;;;;5033270;28;20028;-85
2021/05/13 07:35:02;;;;;;;505.05;363.52;;;;;;;;;;5030543;28;20495;-83
2021/05/13 07:37:29;;;;;;;509.52;364.48;;;;;;;;;;5030744;28;20105;-83
2021/05/13 07:39:54;;;;;;;525.47;374.75;;;;;;;;;;5036970;28;20029;-83
2021/05/13 07:42:20;;;;;;;496.23;355.52;;;;;;;;;;5036885;28;20025;-84
2021/05/13 07:44:47;;;;;;;495.80;359.33;;;;;;;;;;5054702;28;20067;-82
2021/05/13 07:47:12;;;;;;;517.17;376.73;;;;;;;;;;5033765;28;20024;-83
2021/05/13 07:49:38;;;;;;;504.73;364.92;;;;;;;;;;5036058;28;20548;-82
2021/05/13 07:52:04;;;;;;;509.65;375.30;;;;;;;;;;5033218;28;20030;-83
2021/05/13 07:54:30;;;;;;;504.77;364.85;;;;;;;;;;5028357;28;20444;-83
2021/05/13 07:56:56;;;;;;;502.60;365.50;;;;;;;;;;5035944;28;20672;-82
2021/05/13 07:59:23;;;;;;;494.50;365.35;;;;;;;;;;5036359;28;20063;-83
2021/05/13 08:01:49;;;;;;;499.98;367.80;;;;;;;;;;5032179;28;20029;-81
2021/05/13 08:04:15;;;;;;;493.85;361.75;;;;;;;;;;5032986;28;20021;-80
2021/05/13 08:06:41;;;;;;;495.42;370.15;;;;;;;;;;5051204;28;20366;-79
2021/05/13 08:09:07;;;;;;;495.00;368.75;;;;;;;;;;5046446;28;20029;-85
2021/05/13 08:11:34;;;;;;;489.35;364.08;;;;;;;;;;5036942;28;20120;-82
2021/05/13 08:14:00;;;;;;;494.75;373.38;;;;;;;;;;5052655;28;20028;-81
2021/05/13 08:16:26;;;;;;;492.77;368.80;;;;;;;;;;5035833;28;20036;-82
2021/05/13 08:18:52;;;;;;;492.30;376.38;;;;;;;;;;5032027;28;20030;-80
2021/05/13 08:21:18;;;;;;;484.60;378.20;;;;;;;;;;5032385;28;20031;-82
2021/05/13 08:23:44;;;;;;;485.58;376.30;;;;;;;;;;5035247;28;20029;-80
2021/05/13 08:26:10;;;;;;;485.65;380.90;;;;;;;;;;5035472;28;20043;-82
2021/05/13 08:28:36;;;;;;;493.02;393.13;;;;;;;;;;5032736;28;20078;-82
2021/05/13 08:31:02;;;;;;;493.63;399.20;;;;;;;;;;5034108;28;20028;-80
2021/05/13 08:33:28;;;;;;;496.58;404.33;;;;;;;;;;5053060;28;20040;-83
2021/05/13 08:35:54;;;;;;;499.08;409.77;;;;;;;;;;5054033;28;20040;-86
2021/05/13 08:38:20;;;;;;;502.27;413.23;;;;;;;;;;5030915;28;20024;-77
2021/05/13 08:40:46;;;;;;;505.48;421.60;;;;;;;;;;5034105;28;20101;-78
2021/05/13 08:43:23;;;;;;;503.23;415.92;;;;;;;;;;5028999;28;20048;-79
2021/05/13 08:45:50;;;;;;;501.92;410.35;;;;;;;;;;5031140;28;20032;-80
2021/05/13 08:48:17;;;;;;;505.52;418.95;;;;;;;;;;5051935;28;20027;-78
2021/05/13 08:50:43;;;;;;;506.33;419.50;;;;;;;;;;5033667;28;20025;-80
2021/05/13 08:53:09;;;;;;;508.35;429.73;;;;;;;;;;5033611;28;20155;-76
2021/05/13 08:55:35;;;;;;;509.85;428.40;;;;;;;;;;5046608;28;20033;-77
2021/05/13 08:58:01;;;;;;;508.10;431.80;;;;;;;;;;5051993;28;20018;-77
2021/05/13 09:00:27;;;;;;;509.63;434.80;;;;;;;;;;5047921;28;20453;-82
2021/05/13 09:02:53;;;;;;;510.13;435.58;;;;;;;;;;5032301;28;20029;-80
2021/05/13 09:05:19;;;;;;;506.30;442.17;;;;;;;;;;5050434;28;20546;-78
2021/05/13 09:07:46;;;;;;;505.70;442.90;;;;;;;;;;5052909;28;20883;-78
2021/05/13 09:10:13;;;;;;;512.10;455.55;;;;;;;;;;5019719;28;20024;-82
2021/05/13 09:12:46;;;;;;;517.30;460.92;;;;;;;;;;5051529;28;20021;-81
2021/05/13 09:15:20;;;;;;;524.83;467.95;;;;;;;;;;5022506;28;20116;-78
2021/05/13 09:17:52;;;;;;;512.35;455.88;;;;;;;;;;5048542;28;20484;-80
2021/05/13 09:20:45;;;;;;;505.75;439.42;;;;;;;;;;5053010;28;20033;-80
2021/05/13 09:23:14;;;;;;;504.20;430.00;;;;;;;;;;5034871;28;20034;-79
2021/05/13 09:25:42;;;;;;;505.65;431.58;;;;;;;;;;5026841;28;20025;-79
2021/05/13 09:28:10;;;;;;;511.50;451.73;;;;;;;;;;5035001;28;20090;-78
2021/05/13 09:30:36;;;;;;;524.35;467.83;;;;;;;;;;5046263;28;20029;-76
2021/05/13 09:33:05;;;;;;;551.20;494.38;;;;;;;;;;5046238;28;20030;-80
2021/05/13 09:35:35;;;;;;;557.83;500.92;;;;;;;;;;5024035;28;20013;-79
2021/05/13 09:38:01;;;;;;;554.45;497.20;;;;;;;;;;5034391;28;20387;-79
2021/05/13 09:40:38;;;;;;;543.72;486.77;;;;;;;;;;5023017;28;20021;-76
2021/05/13 09:43:15;;;;;;;545.83;488.88;;;;;;;;;;5043071;28;20033;-77
2021/05/13 09:45:42;;;;;;;563.63;505.90;;;;;;;;;;5041666;28;20021;-79
2021/05/13 09:48:08;;;;;;;538.90;481.80;;;;;;;;;;5047652;28;20787;-76
2021/05/13 09:50:34;;;;;;;528.17;470.77;;;;;;;;;;5027749;28;20025;-80
2021/05/13 09:53:02;;;;;;;516.00;459.08;;;;;;;;;;5025466;28;20544;-81
2021/05/13 09:55:30;;;;;;;517.28;453.25;;;;;;;;;;5026650;28;20200;-80
2021/05/13 09:57:58;;;;;;;516.80;449.27;;;;;;;;;;5025519;28;20538;-79
2021/05/13 10:00:32;;;;;;;515.83;441.85;;;;;;;;;;5037305;28;20067;-79
2021/05/13 10:02:59;;;;;;;514.95;442.70;;;;;;;;;;5023567;28;20072;-80
2021/05/13 10:05:25;;;;;;;517.05;443.13;;;;;;;;;;5041813;28;20473;-80
2021/05/13 10:07:52;;;;;;;520.78;449.48;;;;;;;;;;5021091;28;20029;-81
2021/05/13 10:10:18;;;;;;;527.47;445.38;;;;;;;;;;5045024;28;20064;-79
2021/05/13 10:12:44;;;;;;;515.00;429.83;;;;;;;;;;5023724;28;20040;-79
2021/05/13 10:15:11;;;;;;;514.15;437.95;;;;;;;;;;5043982;28;20017;-80
2021/05/13 10:17:38;;;;;;;515.03;429.65;;;;;;;;;;5027139;28;20029;-78
2021/05/13 10:20:05;;;;;;;512.20;431.63;;;;;;;;;;5043709;28;20048;-78
2021/05/13 10:22:31;;;;;;;512.28;430.83;;;;;;;;;;5046694;28;20079;-80
2021/05/13 10:25:17;;;;;;;516.53;437.95;;;;;;;;;;5046592;28;20079;-78
2021/05/13 10:27:43;;;;;;;514.63;433.10;;;;;;;;;;5026986;28;20547;-78
2021/05/13 10:30:15;;;;;;;517.05;434.33;;;;;;;;;;5043342;28;20113;-79
2021/05/13 10:32:40;;;;;;;513.65;428.48;;;;;;;;;;5045962;28;20056;-79
2021/05/13 10:35:12;;;;;;;515.63;432.83;;;;;;;;;;5046130;28;20098;-78
2021/05/13 10:37:39;;;;;;;516.53;434.42;;;;;;;;;;5047015;28;20021;-78
2021/05/13 10:40:14;;;;;;;631.45;441.65;;;;;;;;;;5030370;28;20040;-79
2021/05/13 10:42:41;;;;;;;630.88;441.98;;;;;;;;;;5017256;28;20044;-79
2021/05/13 10:45:25;;;;;;;513.40;424.75;;;;;;;;;;5046016;28;20598;-78
2021/05/13 10:48:10;;;;;;;516.25;424.58;;;;;;;;;;5044795;28;20614;-82
2021/05/13 10:50:47;;;;;;;512.05;422.98;;;;;;;;;;5038710;28;20385;-77
2021/05/13 10:53:31;;;;;;;531.03;424.05;;;;;;;;;;5042914;28;20040;-80
2021/05/13 10:56:14;;;;;;;562.22;427.30;;;;;;;;;;5044167;28;20152;-80
2021/05/13 10:58:59;;;;;;;518.83;424.52;;;;;;;;;;5026443;28;20063;-80
2021/05/13 11:01:46;;;;;;;514.00;416.30;;;;;;;;;;5044234;28;20020;-80
2021/05/13 11:07:00;;;;;;;517.72;418.75;;;;;;;;;;5032081;28;20064;-80
2021/05/13 11:09:38;;;;;;;515.30;416.45;;;;;;;;;;5045838;28;20640;-81
2021/05/13 11:12:14;;;;;;;514.00;423.67;;;;;;;;;;5027903;28;20029;-80
2021/05/13 11:14:58;;;;;;;528.72;449.52;;;;;;;;;;5050616;28;20021;-80
2021/05/13 11:20:19;;;;;;;605.80;544.38;;;;;;;;;;5053191;28;20561;-80
2021/05/13 11:23:02;;;;;;;722.17;654.58;;;;;;;;;;5034438;28;20115;-80
2021/05/13 11:25:37;;;;;;;724.13;657.85;;;;;;;;;;5051567;28;20025;-80
2021/05/13 11:28:19;;;;;;;791.38;721.72;;;;;;;;;;5033152;28;20661;-80
2021/05/13 11:30:45;;;;;;;726.28;660.75;;;;;;;;;;5043841;28;20036;-78
2021/05/13 11:33:12;;;;;;;622.78;563.65;;;;;;;;;;5051717;28;20070;-76
2021/05/13 11:35:39;;;;;;;611.00;550.97;;;;;;;;;;5027849;28;21612;-79
2021/05/13 11:38:14;;;;;;;589.55;529.13;;;;;;;;;;5046419;28;20024;-76
2021/05/13 11:40:40;;;;;;;573.08;512.65;;;;;;;;;;5032410;28;20025;-78
2021/05/13 11:43:13;;;;;;;554.22;494.90;;;;;;;;;;5049782;28;20029;-77
2021/05/13 11:45:40;;;;;;;524.63;462.23;;;;;;;;;;5025543;28;20029;-75
2021/05/13 11:48:23;;;;;;;520.72;446.90;;;;;;;;;;5027227;28;20029;-83
2021/05/13 11:50:49;;;;;;;523.45;442.33;;;;;;;;;;5038139;28;20113;-77
2021/05/13 11:53:15;;;;;;;524.58;460.25;;;;;;;;;;5031650;28;20047;-78
2021/05/13 11:55:42;;;;;;;561.25;501.27;;;;;;;;;;5015910;28;20041;-77
2021/05/13 11:58:09;;;;;;;643.05;577.97;;;;;;;;;;5044316;28;20083;-76
2021/05/13 12:00:40;;;;;;;606.85;546.60;;;;;;;;;;5045539;28;20059;-78
2021/05/13 12:03:10;;;;;;;619.38;559.60;;;;;;;;;;5030264;28;20057;-81
2021/05/13 12:05:36;;;;;;;;;;;;;;;;;;5031929;28;20034;-78
2021/05/13 12:08:08;;;;;;;640.58;580.15;;;;;;;;;;5029865;28;19919;-80
2021/05/13 12:10:34;;;;;;;634.40;574.83;;;;;;;;;;5047014;28;20045;-77
2021/05/13 12:13:04;;;;;;;632.45;571.88;;;;;;;;;;5027350;28;20589;-75
2021/05/13 12:15:30;;;;;;;611.80;551.58;;;;;;;;;;5030203;28;20052;-77
2021/05/13 12:17:56;;;;;;;593.30;532.42;;;;;;;;;;5024254;28;20025;-76
2021/05/13 12:20:22;;;;;;;569.97;509.75;;;;;;;;;;5049047;28;20546;-81
2021/05/13 12:22:48;;;;;;;553.70;494.23;;;;;;;;;;5033880;28;20029;-78
2021/05/13 12:25:14;;;;;;;549.90;489.23;;;;;;;;;;5029454;28;20033;-78
2021/05/13 12:27:40;;;;;;;542.58;471.52;;;;;;;;;;5032026;28;20166;-78
2021/05/13 12:30:06;;;;;;;532.40;459.83;;;;;;;;;;5029504;28;20028;-78
2021/05/13 12:32:33;;;;;;;532.35;455.45;;;;;;;;;;5025075;28;20074;-78
2021/05/13 12:35:00;;;;;;;525.42;441.83;;;;;;;;;;5017843;28;20051;-83
2021/05/13 12:37:26;;;;;;;553.13;457.95;;;;;;;;;;5038550;28;20021;-88
2021/05/13 12:39:52;;;;;;;525.97;440.13;;;;;;;;;;5026563;28;20032;-89
2021/05/13 12:42:26;;;;;;;517.92;432.20;;;;;;;;;;5023698;28;20040;-82
2021/05/13 12:44:55;;;;;;;520.33;431.17;;;;;;;;;;5038086;28;20033;-83
2021/05/13 12:47:25;;;;;;;524.50;432.00;;;;;;;;;;5024378;28;20021;-79
2021/05/13 12:49:51;;;;;;;;;;;;;;;;;;5031204;28;20021;-82
2021/05/13 12:52:20;;;;;;;504.75;395.73;;;;;;;;;;5027343;28;19965;-79
2021/05/13 12:54:46;;;;;;;522.33;407.83;;;;;;;;;;5042422;28;20040;-79
2021/05/13 12:57:15;;;;;;;510.58;409.02;;;;;;;;;;5045593;28;20036;-79
2021/05/13 12:59:42;;;;;;;509.15;403.85;;;;;;;;;;5032598;28;20033;-79
2021/05/13 13:02:08;;;;;;;508.55;400.50;;;;;;;;;;5016321;28;20044;-78
2021/05/13 13:04:47;;;;;;;515.22;402.25;;;;;;;;;;5025640;28;20542;-79
2021/05/13 13:07:13;;;;;;;510.75;408.77;;;;;;;;;;5040612;28;20035;-79
2021/05/13 13:09:39;;;;;;;504.75;401.65;;;;;;;;;;5052573;28;20028;-78
2021/05/13 13:12:08;;;;;;;504.52;401.42;;;;;;;;;;5036100;28;20032;-78
2021/05/13 13:17:00;;;;;;;518.05;411.63;;;;;;;;;;5054047;28;20055;-78
2021/05/13 13:19:26;;;;;;;506.60;423.50;;;;;;;;;;5033795;28;20026;-79
2021/05/13 13:22:03;;;;;;;510.17;437.40;;;;;;;;;;5035703;28;20025;-78
2021/05/13 13:24:30;;;;;;;514.85;447.00;;;;;;;;;;5053355;28;20025;-80
2021/05/13 13:27:00;;;;;;;546.95;488.08;;;;;;;;;;5025225;28;20112;-80
2021/05/13 13:29:27;;;;;;;550.50;492.45;;;;;;;;;;5023194;28;20020;-82
2021/05/13 13:32:04;;;;;;;563.38;504.85;;;;;;;;;;5031349;28;20125;-79
2021/05/13 13:34:39;;;;;;;568.28;509.45;;;;;;;;;;5038344;28;20080;-86
2021/05/13 13:37:05;;;;;;;584.08;524.45;;;;;;;;;;5029498;28;20017;-82
2021/05/13 13:39:31;;;;;;;605.90;544.72;;;;;;;;;;5022803;28;20017;-88
2021/05/13 13:41:58;;;;;;;613.40;553.05;;;;;;;;;;5034497;28;20028;-87
2021/05/13 13:44:24;;;;;;;651.22;588.83;;;;;;;;;;5035642;28;20035;-79
2021/05/13 13:46:51;;;;;;;649.08;587.67;;;;;;;;;;5035758;28;20086;-82
2021/05/13 13:49:17;;;;;;;644.67;584.05;;;;;;;;;;5032651;28;20089;-86
2021/05/13 13:51:43;;;;;;;637.13;577.03;;;;;;;;;;5036425;28;20071;-85
2021/05/13 13:54:10;;;;;;;655.92;595.10;;;;;;;;;;5031335;28;20084;-88
2021/05/13 13:56:36;;;;;;;644.25;584.38;;;;;;;;;;5040818;28;20064;-80
2021/05/13 13:59:02;;;;;;;651.40;591.10;;;;;;;;;;5036889;28;20555;-87
2021/05/13 14:01:28;;;;;;;639.55;580.30;;;;;;;;;;5024301;28;20479;-81
2021/05/13 14:03:54;;;;;;;639.65;579.95;;;;;;;;;;5028895;28;20102;-82
2021/05/13 14:06:20;;;;;;;625.97;566.65;;;;;;;;;;5027909;28;20033;-83
2021/05/13 14:08:46;;;;;;;624.83;565.72;;;;;;;;;;5028238;28;20489;-82
2021/05/13 14:11:12;;;;;;;621.05;561.70;;;;;;;;;;5027766;28;20029;-81
2021/05/13 14:13:38;;;;;;;611.63;552.08;;;;;;;;;;5033409;28;20036;-79
2021/05/13 14:16:04;;;;;;;649.03;586.05;;;;;;;;;;5031278;28;20108;-80